Time;durP1;ratioP1;P1;durP2;ratioP2;P2;SDS_P1;SDS_P2;PMS_P1;PMS_P2;Temp;Humidity;BMP_temperature;BMP_pressure;BME280_temperature;BME280_humidity;BME280_pressure;Samples;Min_cycle;Max_cycle;Signal;HPM_P1;HPM_P2
2023/06/07 00:00:29;;;;;;;18.25;7.90;;;;;;;13.10;100.00;102263.84;5045027;28;20115;-57
2023/06/07 00:02:56;;;;;;;16.40;7.97;;;;;;;13.19;100.00;102262.75;5044166;28;20025;-58
2023/06/07 00:05:23;;;;;;;18.83;7.72;;;;;;;13.23;100.00;102259.13;5045356;28;20108;-58
2023/06/07 00:07:48;;;;;;;18.40;7.70;;;;;;;13.23;100.00;102256.50;5044671;28;20075;-59
2023/06/07 00:10:13;;;;;;;14.30;7.75;;;;;;;13.20;100.00;102264.50;5045472;28;20114;-55
2023/06/07 00:12:40;;;;;;;24.50;7.60;;;;;;;13.20;100.00;102265.38;5045648;28;20498;-55
2023/06/07 00:15:07;;;;;;;14.63;7.65;;;;;;;13.18;100.00;102271.63;5044759;28;20021;-58
2023/06/07 00:17:32;;;;;;;14.82;7.88;;;;;;;13.07;100.00;102270.09;5044123;28;20475;-58
2023/06/07 00:19:58;;;;;;;18.05;8.10;;;;;;;13.06;100.00;102268.31;5044554;28;20033;-57
2023/06/07 00:22:23;;;;;;;22.30;8.02;;;;;;;12.94;100.00;102264.16;5044986;28;20036;-56
2023/06/07 00:24:52;;;;;;;16.10;7.82;;;;;;;12.95;100.00;102267.69;5044870;28;20028;-58
2023/06/07 00:27:18;;;;;;;18.95;8.07;;;;;;;13.00;100.00;102271.09;5045146;28;20017;-58
2023/06/07 00:29:43;;;;;;;18.45;7.30;;;;;;;12.98;100.00;102264.97;5044733;28;20051;-56
2023/06/07 00:32:08;;;;;;;18.48;8.57;;;;;;;12.84;100.00;102267.91;5044229;28;20560;-59
2023/06/07 00:34:34;;;;;;;27.30;8.77;;;;;;;12.75;100.00;102263.66;5043406;28;20543;-59
2023/06/07 00:36:59;;;;;;;21.15;7.90;;;;;;;12.74;100.00;102264.59;5045283;28;20512;-61
2023/06/07 00:39:25;;;;;;;19.85;8.25;;;;;;;12.68;100.00;102270.00;5045459;28;20025;-60
2023/06/07 00:41:51;;;;;;;19.40;8.20;;;;;;;12.72;100.00;102271.66;5042649;28;20025;-62
2023/06/07 00:44:17;;;;;;;15.13;8.52;;;;;;;12.69;100.00;102274.38;5044618;28;20472;-58
2023/06/07 00:46:42;;;;;;;15.32;8.15;;;;;;;12.76;100.00;102268.94;5044336;28;20036;-62
2023/06/07 00:49:09;;;;;;;21.00;7.93;;;;;;;12.75;100.00;102279.53;5042986;28;20344;-59
2023/06/07 00:51:34;;;;;;;17.25;8.93;;;;;;;12.75;100.00;102271.59;5044858;28;20126;-61
2023/06/07 00:54:03;;;;;;;20.70;8.27;;;;;;;12.67;100.00;102268.25;5043292;28;20483;-60
2023/06/07 00:56:28;;;;;;;17.17;8.67;;;;;;;12.56;100.00;102271.97;5044838;28;20197;-55
2023/06/07 00:58:54;;;;;;;17.63;8.55;;;;;;;12.64;100.00;102269.16;5042750;28;20020;-58
2023/06/07 01:01:19;;;;;;;15.18;8.32;;;;;;;12.62;100.00;102269.19;5044192;28;20476;-59
2023/06/07 01:03:44;;;;;;;20.90;8.45;;;;;;;12.68;100.00;102267.34;5042192;28;20021;-59
2023/06/07 01:06:10;;;;;;;18.17;8.10;;;;;;;12.63;100.00;102267.44;5048534;28;20404;-60
2023/06/07 01:08:37;;;;;;;23.20;8.88;;;;;;;12.63;100.00;102270.06;5048116;28;20052;-58
2023/06/07 01:11:03;;;;;;;16.50;8.63;;;;;;;12.53;100.00;102271.16;5048136;28;20119;-57
2023/06/07 01:13:29;;;;;;;15.32;8.05;;;;;;;12.54;100.00;102267.59;5116549;22;20152;-59
2023/06/07 01:15:54;;;;;;;17.92;8.77;;;;;;;12.53;100.00;102265.88;5047737;28;20224;-55
2023/06/07 01:18:20;;;;;;;18.15;8.60;;;;;;;12.45;100.00;102266.00;5047418;28;20033;-59
2023/06/07 01:20:49;;;;;;;17.95;9.18;;;;;;;12.51;100.00;102269.44;5046376;28;20021;-55
2023/06/07 01:23:15;;;;;;;23.38;9.02;;;;;;;12.53;100.00;102261.47;5047177;28;20032;-55
2023/06/07 01:25:41;;;;;;;18.40;8.50;;;;;;;12.61;100.00;102259.53;5047820;28;20104;-55
2023/06/07 01:28:07;;;;;;;18.20;8.23;;;;;;;12.55;100.00;102262.28;5048114;28;20116;-55
2023/06/07 01:30:32;;;;;;;19.13;8.95;;;;;;;12.58;100.00;102256.09;5048945;28;20028;-58
2023/06/07 01:33:03;;;;;;;19.75;8.63;;;;;;;12.58;100.00;102262.22;5047794;28;20025;-53
2023/06/07 01:35:30;;;;;;;16.88;8.65;;;;;;;12.57;100.00;102255.22;5047144;28;20025;-59
2023/06/07 01:37:56;;;;;;;17.35;8.55;;;;;;;12.53;100.00;102260.59;5030872;28;20021;-59
2023/06/07 01:40:23;;;;;;;20.23;9.23;;;;;;;12.58;100.00;102264.03;5046811;28;20467;-56
2023/06/07 01:42:49;;;;;;;18.70;8.68;;;;;;;12.47;100.00;102264.22;5048147;28;20035;-55
2023/06/07 01:45:15;;;;;;;17.50;8.82;;;;;;;12.51;100.00;102265.91;5048560;28;20013;-55
2023/06/07 01:47:40;;;;;;;17.17;8.50;;;;;;;12.50;100.00;102264.16;5046360;28;20390;-56
2023/06/07 01:50:08;;;;;;;19.17;9.10;;;;;;;12.47;100.00;102270.38;5062998;28;20516;-56
2023/06/07 01:52:33;;;;;;;23.08;8.95;;;;;;;12.43;100.00;102270.47;5046427;28;20037;-54
2023/06/07 01:54:58;;;;;;;13.57;8.18;;;;;;;12.42;100.00;102266.06;5047667;28;20416;-56
2023/06/07 01:58:03;;;;;;;25.33;9.65;;;;;;;12.38;100.00;102262.63;5047700;28;20047;-54
2023/06/07 02:00:47;;;;;;;17.15;8.68;;;;;;;12.40;100.00;102259.94;5033643;28;20064;-60
2023/06/07 02:03:16;;;;;;;13.68;8.93;;;;;;;12.37;100.00;102267.03;5047021;28;20222;-61
2023/06/07 02:05:47;;;;;;;20.75;8.93;;;;;;;12.29;100.00;102261.03;5047359;28;20017;-55
2023/06/07 02:08:21;;;;;;;20.05;8.73;;;;;;;12.23;100.00;102255.84;5047867;28;20036;-62
2023/06/07 02:10:47;;;;;;;23.88;10.63;;;;;;;12.22;100.00;102260.25;5046592;28;20032;-57
2023/06/07 02:13:13;;;;;;;19.45;8.57;;;;;;;12.21;100.00;102255.00;5047195;28;20128;-59
2023/06/07 02:15:39;;;;;;;18.60;8.60;;;;;;;12.16;100.00;102256.88;5047776;28;20068;-61
2023/06/07 02:18:04;;;;;;;15.00;8.70;;;;;;;12.15;100.00;102252.44;5046815;28;20045;-57
2023/06/07 02:20:33;;;;;;;22.80;9.55;;;;;;;12.07;100.00;102257.91;5047526;28;20059;-54
2023/06/07 02:22:58;;;;;;;18.27;9.18;;;;;;;12.00;100.00;102254.44;5047197;28;20100;-56
2023/06/07 02:25:24;;;;;;;17.75;9.00;;;;;;;11.95;100.00;102249.22;5046091;28;20055;-58
2023/06/07 02:27:50;;;;;;;17.98;8.77;;;;;;;11.99;100.00;102252.72;5047307;28;20108;-55
2023/06/07 02:30:15;;;;;;;22.50;9.63;;;;;;;12.07;100.00;102242.03;5047073;28;20491;-56
2023/06/07 02:32:45;;;;;;;20.17;9.25;;;;;;;12.03;100.00;102241.19;5046995;28;20021;-58
2023/06/07 02:35:10;;;;;;;;;;;;;;;12.04;100.00;102242.91;5047969;28;20516;-58
2023/06/07 02:37:35;;;;;;;19.30;9.25;;;;;;;11.96;100.00;102250.13;5047017;28;19917;-60
2023/06/07 02:40:01;;;;;;;23.73;9.48;;;;;;;11.98;100.00;102245.69;5047056;28;20092;-58
2023/06/07 02:42:27;;;;;;;20.17;8.80;;;;;;;12.06;100.00;102246.41;5047313;28;20021;-61
2023/06/07 02:44:52;;;;;;;24.67;9.05;;;;;;;12.02;100.00;102250.00;5046672;28;20089;-59
2023/06/07 02:47:18;;;;;;;23.63;9.07;;;;;;;12.06;100.00;102245.53;5045932;28;20021;-58
2023/06/07 02:49:43;;;;;;;19.45;8.60;;;;;;;11.95;100.00;102249.22;5046745;28;20029;-56
2023/06/07 02:52:10;;;;;;;18.77;8.20;;;;;;;11.95;100.00;102245.75;5047376;28;20024;-61
2023/06/07 02:54:36;;;;;;;31.08;9.63;;;;;;;11.94;100.00;102251.91;5046609;28;20039;-59
2023/06/07 02:57:01;;;;;;;21.40;9.40;;;;;;;11.99;100.00;102245.66;5046994;28;20037;-59
2023/06/07 02:59:29;;;;;;;19.98;9.23;;;;;;;12.03;100.00;102245.59;5047652;28;20394;-57
2023/06/07 03:01:54;;;;;;;28.45;10.02;;;;;;;12.00;100.00;102251.81;5046282;28;20028;-57
2023/06/07 03:04:20;;;;;;;20.30;9.13;;;;;;;12.01;100.00;102251.78;5047449;28;20337;-56
2023/06/07 03:06:46;;;;;;;27.13;10.18;;;;;;;11.95;100.00;102245.75;5046806;28;20509;-58
2023/06/07 03:09:14;;;;;;;22.50;9.80;;;;;;;12.03;100.00;102253.50;5047460;28;20024;-56
2023/06/07 03:11:39;;;;;;;21.05;9.63;;;;;;;12.01;100.00;102248.25;5047619;28;20029;-51
2023/06/07 03:14:04;;;;;;;20.48;9.65;;;;;;;12.03;100.00;102256.16;5046202;28;20053;-54
2023/06/07 03:16:30;;;;;;;16.10;8.98;;;;;;;12.04;100.00;102242.06;5047019;28;20059;-55
2023/06/07 03:18:55;;;;;;;22.00;9.93;;;;;;;11.94;100.00;102241.34;5045649;28;20655;-55
2023/06/07 03:21:20;;;;;;;21.98;8.93;;;;;;;11.96;100.00;102250.13;5046235;28;20036;-57
2023/06/07 03:23:46;;;;;;;17.20;9.90;;;;;;;11.82;100.00;102243.28;5045252;28;20025;-56
2023/06/07 03:26:11;;;;;;;23.65;9.68;;;;;;;11.94;100.00;102246.63;5046547;28;20225;-57
2023/06/07 03:28:36;;;;;;;19.60;10.15;;;;;;;12.00;100.00;102244.75;5045334;28;20026;-59
2023/06/07 03:31:02;;;;;;;19.75;9.95;;;;;;;11.92;100.00;102248.44;5045789;28;20499;-57
2023/06/07 03:33:27;;;;;;;21.38;9.43;;;;;;;11.94;100.00;102241.34;5044880;28;20089;-57
2023/06/07 03:35:52;;;;;;;23.65;9.93;;;;;;;11.96;100.00;102240.44;5045848;28;20585;-59
2023/06/07 03:38:18;;;;;;;16.45;8.85;;;;;;;12.06;100.00;102241.13;5045774;28;20040;-57
2023/06/07 03:40:43;;;;;;;21.83;9.55;;;;;;;12.13;100.00;102240.16;5046095;28;20017;-57
2023/06/07 03:43:08;;;;;;;18.33;8.07;;;;;;;12.15;100.00;102245.41;5046528;28;20372;-55
2023/06/07 03:45:34;;;;;;;19.95;9.27;;;;;;;12.16;100.00;102238.38;5046361;28;20021;-61
2023/06/07 03:47:59;;;;;;;16.95;8.70;;;;;;;12.10;100.00;102237.56;5045327;28;20013;-58
2023/06/07 03:50:24;;;;;;;22.17;9.45;;;;;;;12.17;100.00;102237.47;5046058;28;20474;-58
2023/06/07 03:52:50;;;;;;;26.15;9.00;;;;;;;12.16;100.00;102235.72;5045963;28;20029;-58
2023/06/07 03:55:19;;;;;;;26.15;10.00;;;;;;;12.20;100.00;102237.41;5046145;28;20029;-59
2023/06/07 03:57:46;;;;;;;22.90;8.98;;;;;;;12.25;100.00;102239.06;5045785;28;20021;-55
2023/06/07 04:00:14;;;;;;;22.90;9.05;;;;;;;12.33;100.00;102240.69;5046233;28;20134;-57
2023/06/07 04:02:41;;;;;;;22.42;8.90;;;;;;;12.35;100.00;102242.41;5046029;28;20025;-57
2023/06/07 04:05:06;;;;;;;21.35;8.40;;;;;;;12.28;100.00;102240.75;5044043;28;20024;-59
2023/06/07 04:07:32;;;;;;;17.42;8.27;;;;;;;12.44;100.00;102240.47;5045584;28;20055;-53
2023/06/07 04:09:57;;;;;;;17.67;7.82;;;;;;;12.40;100.00;102238.81;5045930;28;20141;-51
2023/06/07 04:12:22;;;;;;;25.45;9.23;;;;;;;12.50;100.00;102250.94;5045894;28;20463;-54
2023/06/07 04:14:48;;;;;;;31.63;8.27;;;;;;;12.44;100.00;102246.66;5045182;28;20506;-54
2023/06/07 04:17:14;;;;;;;16.65;7.50;;;;;;;12.63;100.00;102239.22;5044039;28;20080;-58
2023/06/07 04:19:39;;;;;;;18.80;7.93;;;;;;;12.73;100.00;102244.31;5045600;28;20490;-58
2023/06/07 04:22:05;;;;;;;16.15;7.88;;;;;;;12.68;100.00;102241.78;5044419;28;20522;-59
2023/06/07 04:24:31;;;;;;;22.20;7.78;;;;;;;12.66;100.00;102240.03;5045209;28;20107;-54
2023/06/07 04:26:57;;;;;;;20.35;7.07;;;;;;;12.91;100.00;102247.50;5043467;28;20436;-58
2023/06/07 04:29:25;;;;;;;13.85;7.10;;;;;;;12.92;100.00;102250.09;5044947;28;20029;-57
2023/06/07 04:31:52;;;;;;;15.55;7.18;;;;;;;13.02;100.00;102249.00;5044226;28;20036;-58
2023/06/07 04:34:21;;;;;;;14.95;6.85;;;;;;;13.05;100.00;102250.72;5044538;28;20052;-59
2023/06/07 04:36:49;;;;;;;13.82;6.10;;;;;;;13.09;100.00;102255.03;5044670;28;20043;-62
2023/06/07 04:39:14;;;;;;;15.57;5.95;;;;;;;12.97;100.00;102258.81;5043807;28;20036;-61
2023/06/07 04:41:40;;;;;;;20.88;6.70;;;;;;;12.96;100.00;102254.44;5044805;28;20017;-55
2023/06/07 04:44:05;;;;;;;22.60;6.72;;;;;;;13.23;100.00;102261.78;5044903;28;20307;-56
2023/06/07 04:46:30;;;;;;;16.85;5.93;;;;;;;13.17;100.00;102256.63;5044295;28;20105;-57
2023/06/07 04:48:57;;;;;;;23.95;6.28;;;;;;;13.27;100.00;102263.44;5044478;28;20127;-57
2023/06/07 04:51:25;;;;;;;17.05;5.65;;;;;;;13.35;100.00;102250.94;5044445;28;20320;-55
2023/06/07 04:53:58;;;;;;;12.65;6.05;;;;;;;13.41;100.00;102260.50;5044713;28;20036;-58
2023/06/07 04:56:26;;;;;;;17.52;6.38;;;;;;;13.44;100.00;102259.56;5044886;28;20025;-59
2023/06/07 04:58:52;;;;;;;18.65;5.38;;;;;;;13.43;100.00;102257.81;5044068;28;20479;-59
2023/06/07 05:01:17;;;;;;;12.80;5.43;;;;;;;13.42;100.00;102261.38;5044225;28;20103;-56
2023/06/07 05:03:42;;;;;;;14.10;5.50;;;;;;;13.49;100.00;102253.28;5043639;28;20112;-59
2023/06/07 05:06:08;;;;;;;16.63;5.53;;;;;;;13.53;100.00;102256.72;5045084;28;20467;-57
2023/06/07 05:08:33;;;;;;;14.65;6.10;;;;;;;13.64;100.00;102252.03;5045044;28;20032;-61
2023/06/07 05:10:58;;;;;;;15.32;6.10;;;;;;;13.80;100.00;102262.28;5043091;28;20123;-56
2023/06/07 05:13:24;;;;;;;13.60;5.63;;;;;;;13.90;100.00;102258.47;5044492;28;20049;-58
2023/06/07 05:15:50;;;;;;;11.52;5.50;;;;;;;13.98;100.00;102255.63;5044462;28;20039;-59
2023/06/07 05:18:19;;;;;;;15.90;5.43;;;;;;;14.08;100.00;102268.63;5043632;28;20053;-59
2023/06/07 05:20:46;;;;;;;14.20;5.20;;;;;;;14.12;100.00;102257.91;5044061;28;20025;-56
2023/06/07 05:23:15;;;;;;;17.42;6.13;;;;;;;14.23;100.00;102260.28;5044372;28;20316;-59
2023/06/07 05:25:41;;;;;;;10.35;4.88;;;;;;;14.39;100.00;102257.25;5044254;28;20099;-58
2023/06/07 05:28:06;;;;;;;18.27;5.88;;;;;;;14.35;100.00;102255.56;5043576;28;20376;-59
2023/06/07 05:30:32;;;;;;;12.65;4.90;;;;;;;14.28;100.00;102260.16;5044016;28;20025;-56
2023/06/07 05:32:57;;;;;;;11.10;4.78;;;;;;;14.54;100.00;102261.22;5043664;28;20056;-56
2023/06/07 05:35:22;;;;;;;13.30;4.40;;;;;;;14.49;100.00;102260.50;5044152;28;20072;-62
2023/06/07 05:37:49;;;;;;;15.02;4.72;;;;;;;14.45;100.00;102257.03;5043825;28;20597;-56
2023/06/07 05:40:17;;;;;;;18.85;5.07;;;;;;;14.49;100.00;102264.03;5043511;28;20487;-55
2023/06/07 05:42:43;;;;;;;15.90;4.60;;;;;;;14.48;100.00;102264.91;5044176;28;20025;-61
2023/06/07 05:45:09;;;;;;;78.00;8.57;;;;;;;14.41;100.00;102260.69;5044255;28;20090;-58
2023/06/07 05:47:34;;;;;;;16.02;3.97;;;;;;;14.38;100.00;102263.44;5042520;28;20031;-56
2023/06/07 05:49:59;;;;;;;14.38;4.63;;;;;;;14.51;100.00;102269.28;5043780;28;20018;-57
2023/06/07 05:52:25;;;;;;;16.27;4.97;;;;;;;14.28;100.00;102266.34;5047411;28;20475;-56
2023/06/07 05:54:51;;;;;;;15.93;4.57;;;;;;;14.32;100.00;102272.44;5047212;28;20047;-60
2023/06/07 05:57:17;;;;;;;14.52;4.25;;;;;;;14.20;100.00;102265.66;5047500;28;20021;-55
2023/06/07 05:59:42;;;;;;;16.48;4.43;;;;;;;14.15;100.00;102271.09;5047282;28;20040;-61
2023/06/07 06:02:08;;;;;;;13.00;4.20;;;;;;;14.10;100.00;102265.06;5047389;28;20036;-58
2023/06/07 06:04:33;;;;;;;13.40;4.50;;;;;;;13.97;100.00;102268.94;5047233;28;20063;-58
2023/06/07 06:07:00;;;;;;;17.80;4.20;;;;;;;14.08;100.00;102268.63;5047064;28;20033;-56
2023/06/07 06:09:26;;;;;;;17.08;4.53;;;;;;;14.06;100.00;102273.97;5047453;28;20029;-60
2023/06/07 06:11:51;;;;;;;15.02;4.20;;;;;;;13.91;100.00;102272.59;5047241;28;20399;-61
2023/06/07 06:14:17;;;;;;;14.38;4.55;;;;;;;13.87;100.00;102274.44;5045398;28;20053;-57
2023/06/07 06:16:42;;;;;;;12.10;3.90;;;;;;;13.97;100.00;102267.13;5046892;28;20040;-62
2023/06/07 06:19:07;;;;;;;13.00;4.28;;;;;;;14.03;100.00;102274.94;5047128;28;20017;-59
2023/06/07 06:21:33;;;;;;;13.00;4.38;;;;;;;14.00;100.00;102279.44;5046776;28;20025;-58
2023/06/07 06:23:58;;;;;;;16.58;4.32;;;;;;;13.99;100.00;102275.91;5047093;28;20109;-59
2023/06/07 06:26:25;;;;;;;15.45;4.53;;;;;;;14.10;100.00;102280.94;5047173;28;20027;-61
2023/06/07 06:28:50;;;;;;;14.90;4.43;;;;;;;14.19;100.00;102278.97;5047385;28;20040;-60
2023/06/07 06:31:15;;;;;;;12.93;4.40;;;;;;;14.24;100.00;102277.06;5046005;28;20471;-57
2023/06/07 06:33:41;;;;;;;15.15;4.40;;;;;;;14.48;100.00;102278.19;5047194;28;20411;-60
2023/06/07 06:36:07;;;;;;;15.85;4.45;;;;;;;14.78;100.00;102282.72;5046904;28;20052;-59
2023/06/07 06:38:32;;;;;;;19.08;3.97;;;;;;;14.87;100.00;102282.44;5046827;28;20507;-57
2023/06/07 06:40:58;;;;;;;15.88;4.25;;;;;;;14.86;100.00;102279.81;5046319;28;20112;-59
2023/06/07 06:43:23;;;;;;;17.42;4.63;;;;;;;15.08;100.00;102290.69;5047162;28;20025;-61
2023/06/07 06:45:48;;;;;;;15.20;4.43;;;;;;;15.12;100.00;102288.81;5046133;28;20152;-57
2023/06/07 06:48:14;;;;;;;11.73;4.20;;;;;;;15.20;100.00;102296.56;5045656;28;20025;-60
2023/06/07 06:50:39;;;;;;;12.52;4.82;;;;;;;15.13;100.00;102294.06;5046493;28;20029;-56
2023/06/07 06:53:05;;;;;;;13.18;3.58;;;;;;;15.00;100.00;102298.00;5046457;28;20558;-58
2023/06/07 06:55:30;;;;;;;10.15;3.97;;;;;;;15.26;100.00;102299.88;5046404;28;20032;-58
2023/06/07 06:57:55;;;;;;;12.32;4.10;;;;;;;15.22;100.00;102297.34;5046573;28;20467;-57
2023/06/07 07:00:21;;;;;;;15.27;4.35;;;;;;;15.30;100.00;102298.00;5046573;28;20040;-62
2023/06/07 07:02:46;;;;;;;13.80;3.92;;;;;;;15.34;100.00;102294.34;5044863;28;20024;-54
2023/06/07 07:05:12;;;;;;;13.00;3.85;;;;;;;15.43;100.00;102290.53;5045386;28;20036;-57
2023/06/07 07:07:37;;;;;;;21.70;4.88;;;;;;;15.08;100.00;102295.97;5047013;28;20039;-55
2023/06/07 07:10:03;;;;;;;12.75;3.78;;;;;;;15.28;100.00;102295.41;5045155;28;20100;-56
2023/06/07 07:12:29;;;;;;;14.52;4.28;;;;;;;15.01;100.00;102294.44;5046176;28;20494;-58
2023/06/07 07:14:54;;;;;;;14.43;4.43;;;;;;;15.13;100.00;102294.06;5045577;28;20047;-56
2023/06/07 07:17:20;;;;;;;18.63;4.05;;;;;;;15.05;100.00;102290.75;5045907;28;20020;-57
2023/06/07 07:19:46;;;;;;;9.52;4.05;;;;;;;15.15;100.00;102284.25;5046001;28;20017;-58
2023/06/07 07:22:11;;;;;;;16.05;4.47;;;;;;;15.00;100.00;102298.88;5047061;28;20021;-57
2023/06/07 07:24:36;;;;;;;12.82;4.13;;;;;;;14.77;100.00;102303.03;5046378;28;20021;-61
2023/06/07 07:27:02;;;;;;;14.25;4.40;;;;;;;14.55;100.00;102296.56;5045834;28;20036;-55
2023/06/07 07:29:27;;;;;;;12.00;4.15;;;;;;;14.50;100.00;102294.03;5045649;28;20025;-55
2023/06/07 07:31:53;;;;;;;13.90;4.53;;;;;;;14.75;100.00;102293.38;5045048;28;20475;-56
2023/06/07 07:34:18;;;;;;;17.50;4.50;;;;;;;14.85;100.00;102294.91;5046024;28;20387;-60
2023/06/07 07:36:44;;;;;;;13.65;3.85;;;;;;;14.92;100.00;102290.25;5045977;28;20029;-56
2023/06/07 07:39:11;;;;;;;15.30;4.63;;;;;;;14.96;100.00;102288.41;5046745;28;20067;-53
2023/06/07 07:41:37;;;;;;;17.27;4.50;;;;;;;15.17;100.00;102289.53;5046198;28;20032;-56
2023/06/07 07:44:03;;;;;;;13.95;4.35;;;;;;;15.15;100.00;102291.38;5045757;28;20115;-63
2023/06/07 07:46:28;;;;;;;15.80;4.57;;;;;;;15.43;100.00;102292.28;5045233;28;20104;-60
2023/06/07 07:48:53;;;;;;;18.05;4.43;;;;;;;15.56;100.00;102296.31;5045301;28;20029;-60
2023/06/07 07:51:19;;;;;;;12.55;3.47;;;;;;;15.81;100.00;102297.31;5045721;28;20044;-55
2023/06/07 07:53:45;;;;;;;10.93;4.28;;;;;;;16.01;100.00;102300.22;5043841;28;20091;-58
2023/06/07 07:56:10;;;;;;;17.17;4.30;;;;;;;15.78;100.00;102299.13;5045726;28;20070;-58
2023/06/07 07:58:36;;;;;;;10.65;3.65;;;;;;;16.19;100.00;102307.63;5043896;28;20124;-54
2023/06/07 08:01:02;;;;;;;16.75;4.25;;;;;;;16.03;100.00;102305.47;5044470;28;20041;-59
2023/06/07 08:03:28;;;;;;;9.98;3.97;;;;;;;16.36;100.00;102307.91;5045242;28;20017;-58
2023/06/07 08:05:53;;;;;;;11.68;4.40;;;;;;;16.31;100.00;102301.84;5045156;28;20025;-62
2023/06/07 08:08:19;;;;;;;10.60;4.00;;;;;;;16.03;100.00;102300.16;5044802;28;20298;-60
2023/06/07 08:10:46;;;;;;;12.25;4.32;;;;;;;15.81;100.00;102297.31;5044454;28;20021;-56
2023/06/07 08:13:11;;;;;;;17.15;4.47;;;;;;;15.95;100.00;102296.88;5044128;28;20037;-56
2023/06/07 08:15:37;;;;;;;14.45;4.10;;;;;;;15.95;100.00;102296.88;5044890;28;20395;-58
2023/06/07 08:18:02;;;;;;;13.18;3.78;;;;;;;16.31;100.00;102287.72;5044037;28;20035;-60
2023/06/07 08:20:27;;;;;;;13.45;4.38;;;;;;;16.23;100.00;102287.97;5045631;28;20024;-58
2023/06/07 08:22:53;;;;;;;13.23;4.10;;;;;;;16.37;100.00;102288.34;5045321;28;20021;-58
2023/06/07 08:25:18;;;;;;;14.98;4.20;;;;;;;16.28;100.00;102283.34;5045609;28;20053;-58
2023/06/07 08:27:45;;;;;;;10.65;3.83;;;;;;;16.45;100.00;102276.56;5044651;28;20407;-60
2023/06/07 08:30:11;;;;;;;14.45;3.90;;;;;;;16.44;100.00;102285.47;5045369;28;20340;-60
2023/06/07 08:32:36;;;;;;;15.90;4.43;;;;;;;16.59;100.00;102287.59;5044286;28;20036;-60
2023/06/07 08:35:03;;;;;;;11.05;4.00;;;;;;;16.55;100.00;102286.81;5044171;28;20128;-61
2023/06/07 08:37:28;;;;;;;14.18;4.15;;;;;;;16.42;100.00;102283.75;5044943;28;20036;-59
2023/06/07 08:39:53;;;;;;;19.77;4.32;;;;;;;16.90;100.00;102277.59;5044279;28;20017;-63
2023/06/07 08:42:19;;;;;;;12.23;3.95;;;;;;;16.88;100.00;102287.41;5043205;28;20112;-58
2023/06/07 08:44:44;;;;;;;12.63;4.13;;;;;;;16.89;100.00;102289.19;5044471;28;20025;-60
2023/06/07 08:47:11;;;;;;;14.82;3.97;;;;;;;16.83;100.00;102271.66;5044225;28;20021;-61
2023/06/07 08:49:39;;;;;;;10.65;3.70;;;;;;;16.97;100.00;102280.88;5044214;28;20402;-59
2023/06/07 08:52:08;;;;;;;13.95;4.63;;;;;;;17.05;100.00;102281.47;5043187;28;20033;-63
2023/06/07 08:54:33;;;;;;;;;;;;;;;17.10;100.00;102282.16;5043405;28;20021;-57
2023/06/07 08:56:59;;;;;;;12.27;4.33;;;;;;;16.94;100.00;102279.22;5044343;28;20286;-56
2023/06/07 08:59:25;;;;;;;10.07;4.32;;;;;;;17.17;100.00;102283.69;5044625;28;20629;-55
2023/06/07 09:01:52;;;;;;;13.75;4.30;;;;;;;17.28;100.00;102290.41;5043637;28;20040;-55
2023/06/07 09:04:18;;;;;;;12.07;4.50;;;;;;;17.46;100.00;102285.25;5043540;28;20025;-58
2023/06/07 09:06:43;;;;;;;12.57;4.03;;;;;;;17.40;100.00;102284.56;5044181;28;20462;-59
2023/06/07 09:09:08;;;;;;;14.80;4.70;;;;;;;17.08;100.00;102278.72;5044657;28;20116;-55
2023/06/07 09:11:34;;;;;;;19.83;4.70;;;;;;;17.27;100.00;102278.00;5043958;28;20075;-55
2023/06/07 09:13:59;;;;;;;15.70;4.53;;;;;;;17.32;100.00;102284.00;5044103;28;20499;-60
2023/06/07 09:16:25;;;;;;;16.33;4.32;;;;;;;17.60;100.00;102288.22;5041907;28;20056;-55
2023/06/07 09:18:54;;;;;;;16.65;4.88;;;;;;;17.77;100.00;102286.66;5044286;28;20029;-56
2023/06/07 09:21:26;;;;;;;12.45;4.40;;;;;;;17.95;100.00;102287.69;5044934;28;20075;-59
2023/06/07 09:23:52;;;;;;;17.38;4.43;;;;;;;18.03;100.00;102282.91;5044212;28;20052;-57
2023/06/07 09:26:18;;;;;;;17.88;4.07;;;;;;;18.22;100.00;102284.81;5045461;28;20112;-54
2023/06/07 09:28:47;;;;;;;12.20;4.68;;;;;;;18.16;100.00;102285.97;5047701;28;20033;-57
2023/06/07 09:31:12;;;;;;;9.98;3.65;;;;;;;18.14;100.00;102285.16;5047604;28;20401;-63
2023/06/07 09:33:39;;;;;;;11.38;3.65;;;;;;;18.22;100.00;102284.81;5048245;28;20411;-56
2023/06/07 09:36:12;;;;;;;13.60;4.13;;;;;;;18.51;100.00;102285.31;5046767;28;20060;-58
2023/06/07 09:38:38;;;;;;;11.75;3.95;;;;;;;18.75;100.00;102281.63;5048114;28;20498;-60
2023/06/07 09:41:05;;;;;;;15.35;4.18;;;;;;;18.88;100.00;102282.78;5047466;28;20430;-60
2023/06/07 09:43:41;;;;;;;16.42;4.03;;;;;;;18.89;100.00;102281.84;5047842;28;20029;-60
2023/06/07 09:46:07;;;;;;;12.68;4.10;;;;;;;18.57;100.00;102276.16;5046450;28;20147;-61
2023/06/07 09:48:46;;;;;;;18.55;4.50;;;;;;;18.46;100.00;102275.78;5048059;28;20029;-59
2023/06/07 09:51:11;;;;;;;18.67;4.25;;;;;;;18.52;100.00;102272.84;5047120;28;20510;-59
2023/06/07 09:54:02;;;;;;;15.32;4.18;;;;;;;18.78;100.00;102273.47;5047728;28;20021;-58
2023/06/07 09:56:27;;;;;;;7.47;3.67;;;;;;;19.17;100.00;102269.00;5047680;28;20028;-59
2023/06/07 09:59:07;;;;;;;12.95;4.07;;;;;;;19.28;98.60;102260.50;5047412;28;20494;-57
2023/06/07 10:01:43;;;;;;;11.40;3.97;;;;;;;19.14;99.10;102270.03;5047471;28;20029;-55
2023/06/07 10:04:09;;;;;;;6.45;3.47;;;;;;;19.25;100.00;102265.97;5048936;28;20491;-54
2023/06/07 10:06:40;;;;;;;11.07;3.67;;;;;;;19.23;99.56;102265.22;5048015;28;20104;-52
2023/06/07 10:09:06;;;;;;;18.02;4.45;;;;;;;19.03;100.00;102264.31;5047420;28;20036;-60
2023/06/07 10:11:33;;;;;;;12.48;3.90;;;;;;;19.36;98.47;102269.03;5047349;28;20072;-56
2023/06/07 10:14:09;;;;;;;7.30;3.72;;;;;;;19.04;98.21;102266.03;5046273;28;20136;-58
2023/06/07 10:16:36;;;;;;;14.18;4.75;;;;;;;19.30;98.46;102274.66;5045532;28;20044;-60
2023/06/07 10:19:21;;;;;;;10.07;4.20;;;;;;;19.15;98.67;102276.25;5047258;28;20052;-57
2023/06/07 10:21:49;;;;;;;15.00;4.32;;;;;;;19.33;98.47;102274.50;5047099;28;20108;-58
2023/06/07 10:24:22;;;;;;;13.57;4.22;;;;;;;19.44;96.47;102265.94;5047105;28;20403;-60
2023/06/07 10:26:56;;;;;;;12.18;4.00;;;;;;;19.89;95.63;102255.69;5046585;28;20060;-58
2023/06/07 10:29:35;;;;;;;12.80;4.10;;;;;;;19.78;96.48;102260.75;5047105;28;20049;-59
2023/06/07 10:32:05;;;;;;;;;;;;;;;19.92;95.16;102258.22;5045261;28;20027;-57
2023/06/07 10:34:31;;;;;;;11.75;3.80;;;;;;;20.31;92.15;102253.56;5045892;28;20082;-59
2023/06/07 10:36:58;;;;;;;15.40;4.35;;;;;;;20.52;95.58;102257.84;5045466;28;20358;-56
2023/06/07 10:39:23;;;;;;;13.70;4.22;;;;;;;20.64;92.09;102254.53;5047178;28;20025;-59
2023/06/07 10:41:49;;;;;;;11.43;4.22;;;;;;;20.35;97.78;102256.97;5045187;28;20375;-56
2023/06/07 10:44:14;;;;;;;9.05;3.80;;;;;;;20.79;96.32;102254.63;5046508;28;20064;-62
2023/06/07 10:46:39;;;;;;;14.18;4.07;;;;;;;21.05;93.42;102255.91;5044703;28;20075;-60
2023/06/07 10:49:31;;;;;;;9.25;3.75;;;;;;;20.77;92.65;102260.06;5044644;28;20040;-60
2023/06/07 10:52:04;;;;;;;11.52;4.00;;;;;;;21.09;90.97;102245.84;5046173;28;20021;-57
2023/06/07 10:54:31;;;;;;;15.68;4.40;;;;;;;21.07;94.10;102240.59;5046300;28;20502;-58
2023/06/07 10:56:57;;;;;;;8.65;3.90;;;;;;;21.32;93.11;102236.53;5044448;28;20028;-62
2023/06/07 10:59:23;;;;;;;11.27;4.57;;;;;;;21.64;92.39;102232.88;5046107;28;20013;-61
2023/06/07 11:01:50;;;;;;;12.80;4.97;;;;;;;21.56;90.37;102232.47;5045386;28;20493;-62
2023/06/07 11:04:31;;;;;;;16.25;5.13;;;;;;;21.37;91.25;102227.34;5044508;28;20489;-59
2023/06/07 11:07:18;;;;;;;14.25;4.35;;;;;;;21.81;94.67;102231.06;5046340;28;20021;-61
2023/06/07 11:09:44;;;;;;;12.75;4.20;;;;;;;22.08;89.88;102227.66;5046420;28;20039;-60